Time;durP1;ratioP1;P1;durP2;ratioP2;P2;SDS_P1;SDS_P2;PMS_P1;PMS_P2;Temp;Humidity;BMP_temperature;BMP_pressure;BME280_temperature;BME280_humidity;BME280_pressure;Samples;Min_cycle;Max_cycle;Signal;HPM_P1;HPM_P2
2022/11/25 00:01:33;;;;;;;0.00;0.00;;;6.80;99.90;;;;;;5014456;28;20042;-81
2022/11/25 00:04:01;;;;;;;0.00;0.00;;;8.70;99.90;;;;;;4980200;28;20054;-81
2022/11/25 00:06:30;;;;;;;;;;;9.00;99.90;;;;;;5014719;28;20361;-81
2022/11/25 00:09:08;;;;;;;0.00;0.00;;;7.00;99.90;;;;;;5015984;28;19929;-81
2022/11/25 00:11:38;;;;;;;0.00;0.00;;;6.70;99.90;;;;;;5018086;28;20380;-81
2022/11/25 00:14:09;;;;;;;0.00;0.00;;;8.90;99.90;;;;;;5017856;28;20376;-81
2022/11/25 00:16:38;;;;;;;0.00;0.00;;;6.60;99.90;;;;;;4999512;28;20065;-81
2022/11/25 00:19:16;;;;;;;0.00;0.00;;;5.90;99.90;;;;;;5017553;28;20053;-81
2022/11/25 00:21:47;;;;;;;0.00;0.00;;;8.30;99.90;;;;;;5017672;28;20042;-81
2022/11/25 00:24:15;;;;;;;0.00;0.00;;;6.70;99.90;;;;;;5016557;28;20046;-81
2022/11/25 00:26:43;;;;;;;0.00;0.00;;;9.00;99.90;;;;;;5017496;28;20064;-81
2022/11/25 00:29:12;;;;;;;0.00;0.00;;;6.60;99.90;;;;;;5016483;28;20050;-81
2022/11/25 00:31:40;;;;;;;0.00;0.00;;;9.00;99.90;;;;;;5017461;28;20054;-81
2022/11/25 00:34:12;;;;;;;0.00;0.00;;;6.70;99.90;;;;;;5000618;28;20037;-81
2022/11/25 00:36:40;;;;;;;0.00;0.00;;;7.10;99.90;;;;;;5007126;28;20374;-81
2022/11/25 00:39:13;;;;;;;0.00;0.00;;;9.10;99.90;;;;;;5036512;28;20056;-81
2022/11/25 00:44:34;;;;;;;0.00;0.00;;;7.70;99.90;;;;;;5035831;28;20060;-81
2022/11/25 00:47:13;;;;;;;0.00;0.00;;;9.30;99.90;;;;;;5020165;28;20060;-81
2022/11/25 00:50:01;;;;;;;0.00;0.00;;;9.00;99.90;;;;;;5035194;28;20057;-81
2022/11/25 00:52:35;;;;;;;0.00;0.00;;;6.80;99.90;;;;;;5036175;28;20045;-81
2022/11/25 00:55:04;;;;;;;0.10;0.10;;;7.00;99.90;;;;;;5037016;28;20038;-81
2022/11/25 00:57:36;;;;;;;0.00;0.00;;;6.70;99.90;;;;;;5035887;28;20046;-81
2022/11/25 01:00:05;;;;;;;0.00;0.00;;;8.90;99.90;;;;;;5019448;28;20479;-81
2022/11/25 01:02:32;;;;;;;0.00;0.00;;;6.70;99.90;;;;;;5035763;28;20050;-81
2022/11/25 01:05:00;;;;;;;0.00;0.00;;;6.80;99.90;;;;;;5036549;28;20495;-81
2022/11/25 01:07:28;;;;;;;0.00;0.00;;;9.20;99.90;;;;;;5019617;28;20060;-81
2022/11/25 01:09:56;;;;;;;0.00;0.00;;;9.40;99.90;;;;;;5018204;28;20365;-81
2022/11/25 01:12:25;;;;;;;0.00;0.00;;;8.70;99.90;;;;;;5018776;28;20388;-81
2022/11/25 01:14:52;;;;;;;0.00;0.00;;;8.20;99.90;;;;;;5035416;28;20453;-82
2022/11/25 01:17:20;;;;;;;0.00;0.00;;;7.90;99.90;;;;;;5018017;28;20361;-81
2022/11/25 01:19:48;;;;;;;0.00;0.00;;;9.00;99.90;;;;;;5035055;28;20046;-81
2022/11/25 01:22:15;;;;;;;0.00;0.00;;;8.90;99.90;;;;;;5035370;28;20484;-81
2022/11/25 01:24:43;;;;;;;0.00;0.00;;;7.00;99.90;;;;;;5017695;28;20061;-81
2022/11/25 01:27:10;;;;;;;0.00;0.00;;;9.40;99.90;;;;;;5036254;28;20162;-81
2022/11/25 01:29:40;;;;;;;0.00;0.00;;;8.90;99.90;;;;;;5035020;28;20053;-81
2022/11/25 01:32:08;;;;;;;0.00;0.00;;;6.90;99.90;;;;;;5035841;28;20053;-81
2022/11/25 01:34:36;;;;;;;0.00;0.00;;;9.30;99.90;;;;;;5035048;28;20046;-81
2022/11/25 01:37:04;;;;;;;0.00;0.00;;;8.20;99.90;;;;;;5034186;28;20384;-81
2022/11/25 01:39:31;;;;;;;0.00;0.00;;;7.10;99.90;;;;;;5035819;28;20045;-81
2022/11/25 01:42:00;;;;;;;0.00;0.00;;;6.80;99.90;;;;;;5034898;28;20476;-81
2022/11/25 01:44:29;;;;;;;;;;;6.80;99.90;;;;;;5034926;28;20057;-81
2022/11/25 01:47:23;;;;;;;49.08;4.75;;;6.80;99.90;;;;;;5018968;28;19920;-81
2022/11/25 01:50:06;;;;;;;57.80;5.10;;;6.80;99.90;;;;;;5034132;28;20037;-81
2022/11/25 01:52:38;;;;;;;53.65;4.85;;;6.80;99.90;;;;;;5034771;28;20056;-81
2022/11/25 01:55:20;;;;;;;51.83;5.45;;;8.20;99.90;;;;;;5035869;28;20041;-81
2022/11/25 01:57:57;;;;;;;56.22;4.80;;;6.70;99.90;;;;;;5033669;28;20045;-81
2022/11/25 02:00:24;;;;;;;64.70;4.97;;;6.70;99.90;;;;;;5034528;28;20041;-81
2022/11/25 02:02:54;;;;;;;66.07;5.57;;;8.70;99.90;;;;;;5033530;28;20052;-81
2022/11/25 02:05:33;;;;;;;63.60;5.80;;;6.90;99.90;;;;;;5034499;28;20045;-81
2022/11/25 02:08:01;;;;;;;60.80;5.57;;;6.80;99.90;;;;;;5035459;28;20384;-81
2022/11/25 02:10:30;;;;;;;59.83;5.90;;;8.30;99.90;;;;;;5033408;28;20368;-81
2022/11/25 02:12:59;;;;;;;60.67;6.05;;;6.90;99.90;;;;;;5035167;28;20064;-81
2022/11/25 02:15:28;;;;;;;;;;;6.90;99.90;;;;;;5034944;28;20045;-81
2022/11/25 02:17:55;;;;;;;56.58;5.32;;;7.00;99.90;;;;;;5033155;28;19921;-81
2022/11/25 02:20:23;;;;;;;65.10;4.97;;;6.90;99.90;;;;;;5034202;28;20037;-81
2022/11/25 02:23:00;;;;;;;66.88;5.28;;;7.80;99.90;;;;;;5033436;28;20479;-81
2022/11/25 02:25:33;;;;;;;77.30;6.68;;;7.10;99.90;;;;;;5001836;28;20072;-82
2022/11/25 02:28:12;;;;;;;57.15;5.07;;;7.10;99.90;;;;;;5034081;28;20045;-81
2022/11/25 02:30:40;;;;;;;71.53;5.70;;;8.30;99.90;;;;;;5032732;28;20412;-81
2022/11/25 02:33:08;;;;;;;59.08;5.88;;;7.10;99.90;;;;;;5034157;28;20049;-81
2022/11/25 02:35:48;;;;;;;71.18;5.70;;;7.80;99.90;;;;;;5034213;28;20369;-81
2022/11/25 02:38:32;;;;;;;71.82;6.43;;;7.10;99.90;;;;;;4998862;28;20061;-80
2022/11/25 02:41:06;;;;;;;51.40;5.22;;;7.10;99.90;;;;;;4998598;28;20049;-80
2022/11/25 02:43:35;;;;;;;65.57;6.32;;;7.00;99.90;;;;;;4997389;28;20054;-81
2022/11/25 02:46:08;;;;;;;77.85;6.13;;;7.00;99.90;;;;;;5015144;28;20057;-80
2022/11/25 02:48:38;;;;;;;69.60;5.35;;;7.00;99.90;;;;;;4997966;28;20158;-81
2022/11/25 02:51:28;;;;;;;61.25;5.68;;;8.60;99.90;;;;;;4996614;28;20060;-81
2022/11/25 02:53:59;;;;;;;69.18;6.45;;;8.30;99.90;;;;;;4998020;28;20369;-81
2022/11/25 02:56:30;;;;;;;67.57;5.40;;;8.00;99.90;;;;;;4996711;28;20041;-81
2022/11/25 02:59:05;;;;;;;69.35;6.28;;;7.10;99.90;;;;;;5014919;28;20057;-80
2022/11/25 03:01:34;;;;;;;71.60;6.35;;;7.10;99.90;;;;;;4997725;28;20045;-80
2022/11/25 03:04:06;;;;;;;57.28;5.22;;;7.10;99.90;;;;;;4980673;28;20046;-81
2022/11/25 03:06:33;;;;;;;66.00;6.07;;;7.10;99.90;;;;;;4981963;28;20050;-81
2022/11/25 03:09:02;;;;;;;60.15;6.13;;;7.20;99.90;;;;;;4981530;28;20053;-80
2022/11/25 03:14:17;;;;;;;69.13;5.72;;;7.10;99.90;;;;;;4981494;28;20046;-81
2022/11/25 03:16:44;;;;;;;64.10;6.20;;;7.10;99.90;;;;;;5013758;28;20069;-80
2022/11/25 03:19:12;;;;;;;76.65;6.43;;;7.00;99.90;;;;;;4997647;28;20046;-81
2022/11/25 03:21:39;;;;;;;86.63;6.35;;;8.10;99.90;;;;;;4997433;28;20049;-81
2022/11/25 03:24:07;;;;;;;70.40;6.40;;;7.70;99.90;;;;;;4996497;28;20050;-81
2022/11/25 03:26:34;;;;;;;73.22;6.30;;;6.90;99.90;;;;;;5014800;28;20073;-81
2022/11/25 03:29:03;;;;;;;66.05;5.82;;;6.90;99.90;;;;;;4997329;28;20053;-80
2022/11/25 03:31:30;;;;;;;100.72;7.35;;;7.00;99.90;;;;;;4997902;28;20046;-81
2022/11/25 03:33:58;;;;;;;80.10;6.80;;;8.40;99.90;;;;;;4997319;28;20057;-81
2022/11/25 03:36:25;;;;;;;71.07;6.22;;;6.80;99.90;;;;;;4999869;28;20057;-81
2022/11/25 03:38:53;;;;;;;67.95;6.45;;;6.80;99.90;;;;;;5034196;28;20048;-81
2022/11/25 03:41:20;;;;;;;71.70;6.05;;;6.80;99.90;;;;;;5033551;28;20045;-81
2022/11/25 03:43:48;;;;;;;85.13;7.15;;;6.80;99.90;;;;;;5035468;28;20042;-80
2022/11/25 03:46:17;;;;;;;87.20;6.22;;;6.80;99.90;;;;;;5020912;28;20049;-80
2022/11/25 03:48:45;;;;;;;74.53;6.10;;;7.50;99.90;;;;;;5020738;28;20057;-81
2022/11/25 03:51:12;;;;;;;73.03;6.22;;;8.90;99.90;;;;;;5019971;28;20056;-80
2022/11/25 03:53:40;;;;;;;61.83;6.75;;;7.30;99.90;;;;;;5020577;28;20050;-80
2022/11/25 03:56:09;;;;;;;75.85;5.93;;;7.70;99.90;;;;;;5019733;28;20048;-81
2022/11/25 03:58:36;;;;;;;68.90;6.13;;;6.80;99.90;;;;;;5020792;28;20045;-80
2022/11/25 04:01:05;;;;;;;53.85;5.70;;;6.80;99.90;;;;;;5036932;28;20046;-80
2022/11/25 04:03:33;;;;;;;57.53;6.22;;;8.10;99.90;;;;;;5035840;28;20045;-80
2022/11/25 04:06:01;;;;;;;61.10;6.20;;;6.80;99.90;;;;;;5036750;28;20045;-81
2022/11/25 04:08:29;;;;;;;57.42;5.40;;;8.90;99.90;;;;;;5020650;28;20068;-80
2022/11/25 04:11:00;;;;;;;59.72;5.22;;;8.80;99.90;;;;;;5035731;28;20060;-81
2022/11/25 04:13:34;;;;;;;59.67;5.97;;;8.90;99.90;;;;;;5036982;28;20046;-81
2022/11/25 04:16:02;;;;;;;65.40;6.35;;;7.10;99.90;;;;;;5035624;28;20049;-80
2022/11/25 04:18:30;;;;;;;63.42;4.93;;;6.80;99.90;;;;;;5036553;28;20045;-80
2022/11/25 04:20:59;;;;;;;71.70;5.75;;;6.80;99.90;;;;;;5036347;28;20046;-81
2022/11/25 04:23:28;;;;;;;67.93;5.72;;;7.40;99.90;;;;;;5036177;28;20045;-81
2022/11/25 04:26:01;;;;;;;70.07;5.95;;;7.10;99.90;;;;;;5036765;28;20045;-80
2022/11/25 04:28:36;;;;;;;66.82;5.22;;;6.70;99.90;;;;;;5036378;28;20053;-81
2022/11/25 04:31:07;;;;;;;60.72;6.22;;;6.70;99.90;;;;;;5035194;28;20049;-81
2022/11/25 04:33:38;;;;;;;75.15;6.25;;;7.50;99.90;;;;;;5036897;28;20049;-81
2022/11/25 04:36:07;;;;;;;66.28;5.60;;;6.70;99.90;;;;;;5034151;28;20054;-81
2022/11/25 04:38:35;;;;;;;63.83;5.93;;;6.70;99.90;;;;;;5000424;28;20136;-80
2022/11/25 04:41:04;;;;;;;57.10;5.70;;;9.10;99.90;;;;;;5000058;28;20046;-80
2022/11/25 04:43:37;;;;;;;66.45;5.72;;;6.60;99.90;;;;;;4998840;28;20045;-81
2022/11/25 04:46:18;;;;;;;55.13;5.68;;;8.30;99.90;;;;;;5000019;28;20380;-81
2022/11/25 04:48:49;;;;;;;66.38;5.93;;;6.60;99.90;;;;;;4984015;28;20054;-81
2022/11/25 04:51:18;;;;;;;67.13;6.32;;;8.30;99.90;;;;;;4998848;28;20461;-80
2022/11/25 04:53:49;;;;;;;59.70;5.82;;;6.60;99.90;;;;;;4999220;28;20389;-80
2022/11/25 04:56:19;;;;;;;72.18;6.07;;;8.40;99.90;;;;;;4982311;28;20061;-81
2022/11/25 05:01:39;;;;;;;63.70;5.22;;;8.40;99.90;;;;;;5017085;28;20056;-81
2022/11/25 05:04:21;;;;;;;60.90;5.47;;;6.70;99.90;;;;;;4982342;28;20050;-80
2022/11/25 05:06:50;;;;;;;80.13;5.35;;;7.60;99.90;;;;;;5000041;28;20046;-81
2022/11/25 05:09:19;;;;;;;59.08;6.10;;;6.70;99.90;;;;;;4998696;28;20052;-81
2022/11/25 05:11:58;;;;;;;72.80;5.75;;;8.80;99.90;;;;;;4999731;28;20053;-81
2022/11/25 05:14:25;;;;;;;54.58;5.32;;;9.00;99.90;;;;;;4999662;28;20056;-80
2022/11/25 05:16:53;;;;;;;65.30;6.45;;;9.00;99.90;;;;;;5015369;28;20049;-80
2022/11/25 05:19:21;;;;;;;64.38;6.00;;;7.10;99.90;;;;;;5016430;28;20050;-81
2022/11/25 05:21:49;;;;;;;71.70;5.93;;;6.70;99.90;;;;;;4999409;28;20038;-80
2022/11/25 05:24:17;;;;;;;63.95;5.55;;;7.40;99.90;;;;;;4966226;28;20050;-80
2022/11/25 05:26:50;;;;;;;59.88;5.65;;;8.50;99.90;;;;;;4999105;28;20061;-81
2022/11/25 05:29:18;;;;;;;58.67;5.30;;;8.50;99.90;;;;;;4998203;28;20053;-80
2022/11/25 05:31:47;;;;;;;57.40;5.95;;;6.70;99.90;;;;;;4998958;28;20057;-80
2022/11/25 05:34:15;;;;;;;55.58;5.55;;;6.70;99.90;;;;;;4999019;28;20072;-80
2022/11/25 05:36:44;;;;;;;52.72;5.07;;;6.90;99.90;;;;;;5006721;28;20053;-81
2022/11/25 05:39:12;;;;;;;57.50;5.05;;;8.40;99.90;;;;;;5035139;28;20057;-80
2022/11/25 05:42:03;;;;;;;66.95;6.07;;;6.80;99.90;;;;;;4998838;28;20050;-80
2022/11/25 05:44:30;;;;;;;68.00;5.80;;;6.70;99.90;;;;;;5033858;28;20049;-80
2022/11/25 05:46:58;;;;;;;56.13;5.75;;;6.70;99.90;;;;;;5034878;28;20049;-80
2022/11/25 05:49:25;;;;;;;68.95;6.18;;;6.80;99.90;;;;;;5034587;28;20071;-81
2022/11/25 05:51:53;;;;;;;66.22;5.00;;;7.80;99.90;;;;;;5035592;28;20045;-81
2022/11/25 05:54:24;;;;;;;55.50;6.18;;;6.80;99.90;;;;;;5034983;28;20049;-80
2022/11/25 05:56:52;;;;;;;65.05;5.13;;;6.80;99.90;;;;;;5033697;28;20052;-80
2022/11/25 05:59:25;;;;;;;67.47;5.57;;;9.00;99.90;;;;;;5035306;28;20041;-80
2022/11/25 06:02:19;;;;;;;50.28;4.80;;;8.60;99.90;;;;;;5033373;28;20057;-80
2022/11/25 06:04:47;;;;;;;56.53;4.72;;;6.90;99.90;;;;;;5033490;28;20037;-80
2022/11/25 06:07:17;;;;;;;54.53;6.13;;;8.90;99.90;;;;;;5034140;28;20041;-80
2022/11/25 06:09:45;;;;;;;64.78;4.82;;;7.60;99.90;;;;;;5033508;28;20368;-80
2022/11/25 06:12:12;;;;;;;56.10;5.53;;;6.60;99.90;;;;;;5034535;28;20056;-80
2022/11/25 06:14:47;;;;;;;52.75;5.10;;;7.00;99.90;;;;;;5034631;28;20045;-80
2022/11/25 06:17:15;;;;;;;54.17;5.45;;;7.70;99.90;;;;;;5034135;28;20041;-80
2022/11/25 06:20:02;;;;;;;59.65;5.35;;;6.60;99.90;;;;;;5034449;28;20043;-80
2022/11/25 06:22:30;;;;;;;56.80;4.90;;;6.50;99.90;;;;;;5016614;28;20060;-80
2022/11/25 06:24:58;;;;;;;57.47;5.28;;;4.10;99.90;;;;;;5034105;28;20376;-80
2022/11/25 06:27:32;;;;;;;50.55;5.10;;;6.50;99.90;;;;;;5034379;28;20384;-80
2022/11/25 06:30:23;;;;;;;55.65;4.63;;;6.60;99.90;;;;;;5033327;28;20050;-80
2022/11/25 06:33:05;;;;;;;44.45;4.70;;;6.30;99.90;;;;;;5035001;28;20102;-80
2022/11/25 06:35:33;;;;;;;55.55;4.78;;;8.40;99.90;;;;;;5017521;28;20452;-78
2022/11/25 06:38:02;;;;;;;53.28;4.93;;;8.10;99.90;;;;;;5017824;28;20069;-79
2022/11/25 06:40:30;;;;;;;58.00;4.80;;;6.10;99.90;;;;;;5006212;28;20365;-78
2022/11/25 06:42:57;;;;;;;50.95;4.38;;;7.20;99.90;;;;;;5034016;28;20045;-79
2022/11/25 06:45:25;;;;;;;65.47;5.45;;;7.30;99.90;;;;;;5017833;28;20052;-78
2022/11/25 06:47:52;;;;;;;62.50;4.80;;;5.90;99.90;;;;;;5017673;28;20053;-79
2022/11/25 06:50:20;;;;;;;56.67;5.15;;;5.90;99.90;;;;;;5033793;28;20056;-79
2022/11/25 06:52:48;;;;;;;46.67;4.90;;;7.30;99.90;;;;;;5034814;28;20052;-78
2022/11/25 06:55:16;;;;;;;53.35;5.40;;;7.00;99.90;;;;;;5035080;28;20056;-78
2022/11/25 06:57:43;;;;;;;;;;;5.80;99.90;;;;;;5034060;28;20460;-78
2022/11/25 07:00:11;;;;;;;63.65;5.32;;;5.80;99.90;;;;;;5034981;28;20343;-78
2022/11/25 07:02:41;;;;;;;54.40;5.10;;;5.70;99.90;;;;;;5016797;28;20472;-79
2022/11/25 07:05:15;;;;;;;52.20;4.72;;;5.90;99.90;;;;;;5017315;28;20056;-78
2022/11/25 07:07:42;;;;;;;58.42;6.32;;;5.90;99.90;;;;;;5035033;28;20042;-78
2022/11/25 07:10:10;;;;;;;46.30;4.60;;;6.40;99.90;;;;;;5033893;28;20372;-78
2022/11/25 07:12:38;;;;;;;46.13;4.60;;;6.50;99.90;;;;;;5017187;28;20072;-78
2022/11/25 07:15:06;;;;;;;58.08;5.25;;;5.80;99.90;;;;;;5034375;28;20049;-78
2022/11/25 07:17:34;;;;;;;57.97;4.70;;;5.80;99.90;;;;;;5034897;28;20045;-78
2022/11/25 07:20:02;;;;;;;59.45;5.00;;;6.80;99.90;;;;;;5039123;28;20053;-79
2022/11/25 07:22:29;;;;;;;64.43;5.05;;;5.70;99.90;;;;;;5037686;28;20046;-78
2022/11/25 07:25:08;;;;;;;46.03;4.22;;;5.10;99.90;;;;;;5023153;28;20042;-78
2022/11/25 07:27:39;;;;;;;59.70;4.93;;;5.80;99.90;;;;;;5038803;28;20376;-79
2022/11/25 07:30:07;;;;;;;49.80;5.65;;;6.00;99.90;;;;;;5037633;28;20056;-79
2022/11/25 07:32:55;;;;;;;58.00;4.93;;;5.80;99.90;;;;;;5038724;28;20041;-78
2022/11/25 07:35:22;;;;;;;48.42;4.57;;;5.90;99.90;;;;;;5021624;28;20045;-78
2022/11/25 07:37:51;;;;;;;41.53;4.45;;;8.40;99.90;;;;;;5037069;28;20061;-78
2022/11/25 07:40:21;;;;;;;41.28;4.72;;;4.40;99.90;;;;;;5019739;28;20052;-79
2022/11/25 07:42:48;;;;;;;45.50;4.50;;;6.00;99.90;;;;;;5033589;28;20046;-78
2022/11/25 07:45:16;;;;;;;64.22;6.82;;;6.10;99.90;;;;;;5001045;28;20061;-80
2022/11/25 07:47:45;;;;;;;39.72;4.43;;;6.20;99.90;;;;;;4985256;28;20129;-80
2022/11/25 07:50:41;;;;;;;61.42;4.78;;;6.20;99.90;;;;;;4999759;28;20495;-80
2022/11/25 07:53:34;;;;;;;44.88;4.10;;;5.90;99.90;;;;;;4987849;28;20041;-81
2022/11/25 07:56:02;;;;;;;58.22;5.53;;;7.30;99.90;;;;;;5016626;28;20045;-76
2022/11/25 07:58:48;;;;;;;39.40;4.15;;;6.00;99.90;;;;;;5017547;28;20069;-77
2022/11/25 08:01:18;;;;;;;56.53;4.90;;;7.80;99.90;;;;;;5000970;28;20050;-78
2022/11/25 08:04:33;;;;;;;57.10;6.00;;;6.70;99.90;;;;;;5016685;28;20045;-79
2022/11/25 08:07:02;;;;;;;57.75;5.78;;;6.20;99.90;;;;;;5017511;28;20380;-79
2022/11/25 08:09:32;;;;;;;47.78;4.25;;;8.80;99.90;;;;;;5016366;28;20468;-79
2022/11/25 08:15:03;;;;;;;45.13;5.47;;;5.70;99.90;;;;;;4990526;28;20073;-79
2022/11/25 08:17:30;;;;;;;36.60;3.50;;;6.10;99.90;;;;;;5015996;28;20044;-77
2022/11/25 08:19:58;;;;;;;40.67;4.68;;;8.60;99.90;;;;;;5000284;28;20042;-78
2022/11/25 08:22:26;;;;;;;46.75;5.18;;;8.70;99.90;;;;;;5016360;28;20042;-78
2022/11/25 08:24:54;;;;;;;45.95;4.13;;;8.40;99.90;;;;;;5017752;28;20053;-78
2022/11/25 08:27:21;;;;;;;42.08;4.20;;;7.00;99.90;;;;;;5017760;28;20054;-78
2022/11/25 08:29:58;;;;;;;43.33;4.60;;;7.30;99.90;;;;;;5000058;28;20065;-78
2022/11/25 08:32:26;;;;;;;42.72;3.97;;;8.70;99.90;;;;;;5000697;28;20046;-78
2022/11/25 08:34:53;;;;;;;42.60;4.20;;;8.70;99.90;;;;;;5017877;28;20042;-78
2022/11/25 08:37:24;;;;;;;35.97;3.95;;;8.60;99.90;;;;;;5018688;28;20050;-77
2022/11/25 08:39:53;;;;;;;40.83;3.95;;;7.70;99.90;;;;;;5037089;28;20057;-77
2022/11/25 08:42:21;;;;;;;;;;;9.00;99.90;;;;;;5037489;28;20037;-78
2022/11/25 08:44:54;;;;;;;32.95;4.20;;;6.70;99.90;;;;;;5036344;28;19925;-78
2022/11/25 08:47:23;;;;;;;42.63;3.45;;;6.70;99.90;;;;;;5037454;28;20046;-77
2022/11/25 08:49:51;;;;;;;35.00;3.60;;;6.80;99.90;;;;;;5035847;28;20396;-77
2022/11/25 08:52:22;;;;;;;38.50;3.83;;;6.60;99.90;;;;;;5036764;28;20060;-79
2022/11/25 08:54:55;;;;;;;47.05;3.97;;;7.60;99.90;;;;;;5036958;28;20053;-79
2022/11/25 08:57:23;;;;;;;43.03;3.95;;;8.10;99.90;;;;;;5040305;28;20049;-78
2022/11/25 08:59:51;;;;;;;32.45;3.85;;;9.00;99.90;;;;;;5057050;28;20037;-79
2022/11/25 09:02:21;;;;;;;38.67;4.00;;;6.90;99.90;;;;;;5056742;28;20049;-77
2022/11/25 09:04:49;;;;;;;37.15;3.67;;;9.50;99.90;;;;;;5055733;28;20057;-79
2022/11/25 09:07:17;;;;;;;30.35;3.30;;;7.80;99.90;;;;;;5055562;28;20048;-78
2022/11/25 09:09:45;;;;;;;39.40;3.88;;;8.70;99.90;;;;;;5055298;28;20460;-78
2022/11/25 09:12:19;;;;;;;35.35;3.22;;;7.10;99.90;;;;;;5056184;28;20037;-77
2022/11/25 09:14:47;;;;;;;31.38;3.83;;;7.20;99.90;;;;;;5055966;28;20045;-78
2022/11/25 09:17:17;;;;;;;33.17;3.75;;;7.10;99.90;;;;;;5055337;28;20452;-78
2022/11/25 09:19:47;;;;;;;28.85;3.30;;;7.20;99.90;;;;;;5056559;28;20052;-78
2022/11/25 09:22:14;;;;;;;29.30;2.97;;;7.20;99.90;;;;;;5056088;28;20045;-78
2022/11/25 09:24:44;;;;;;;30.10;3.72;;;9.20;99.90;;;;;;5054178;28;20049;-78
2022/11/25 09:27:17;;;;;;;32.33;3.33;;;6.60;99.90;;;;;;5055079;28;20053;-78
2022/11/25 09:29:47;;;;;;;24.20;3.25;;;7.20;99.90;;;;;;5055423;28;20041;-78
2022/11/25 09:32:14;;;;;;;21.63;3.20;;;7.50;99.90;;;;;;5056252;28;20398;-78
2022/11/25 09:34:42;;;;;;;30.50;3.30;;;9.80;99.90;;;;;;5055408;28;20053;-78
2022/11/25 09:37:11;;;;;;;37.80;3.92;;;7.40;99.90;;;;;;5046958;28;20049;-78
2022/11/25 09:39:38;;;;;;;34.67;3.53;;;8.30;99.90;;;;;;5018535;28;20058;-78
2022/11/25 09:48:38;;;;;;;32.35;3.30;;;7.60;99.90;;;;;;5018640;28;20057;-78
2022/11/25 09:51:41;;;;;;;29.30;3.35;;;7.60;99.90;;;;;;5017187;28;20372;-78
2022/11/25 09:54:18;;;;;;;33.45;3.03;;;7.60;99.90;;;;;;5034670;28;20049;-78
2022/11/25 09:57:05;;;;;;;26.77;3.35;;;7.30;99.90;;;;;;5034827;28;20041;-78
2022/11/25 09:59:50;;;;;;;32.90;3.35;;;10.00;99.90;;;;;;5035536;28;20064;-78
2022/11/25 10:02:35;;;;;;;26.95;3.67;;;7.60;99.90;;;;;;5035309;28;20038;-78
2022/11/25 10:05:20;;;;;;;30.52;3.55;;;6.30;99.90;;;;;;5035750;28;20053;-78
2022/11/25 10:08:32;;;;;;;25.00;3.03;;;9.20;99.90;;;;;;5035454;28;20049;-78
2022/11/25 10:11:22;;;;;;;31.35;4.15;;;9.90;99.90;;;;;;5034343;28;20072;-79
2022/11/25 10:14:04;;;;;;;34.63;3.38;;;8.50;99.90;;;;;;5035239;28;20050;-79
2022/11/25 10:16:50;;;;;;;26.23;3.42;;;7.80;99.90;;;;;;5017196;28;20052;-78
2022/11/25 10:19:39;;;;;;;29.02;3.42;;;7.80;99.90;;;;;;5018647;28;20049;-78
2022/11/25 10:22:23;;;;;;;26.75;4.05;;;7.90;99.90;;;;;;5035473;28;20476;-79
2022/11/25 10:25:12;;;;;;;27.90;3.70;;;7.80;99.90;;;;;;5035362;28;20056;-78
2022/11/25 10:27:57;;;;;;;32.75;4.22;;;8.10;99.90;;;;;;5035463;28;20041;-78
2022/11/25 10:30:36;;;;;;;32.75;4.00;;;8.00;99.90;;;;;;5033975;28;20054;-78
2022/11/25 10:33:13;;;;;;;32.72;3.67;;;9.30;99.90;;;;;;5017715;28;20049;-78
2022/11/25 10:36:07;;;;;;;36.08;3.50;;;7.10;99.90;;;;;;5034715;28;20360;-78
2022/11/25 10:38:38;;;;;;;39.75;4.72;;;8.00;99.90;;;;;;5034519;28;20045;-78
2022/11/25 10:41:17;;;;;;;26.35;3.58;;;9.60;99.90;;;;;;5018335;28;20476;-78
2022/11/25 10:43:49;;;;;;;28.85;3.30;;;6.60;99.90;;;;;;5017765;28;20052;-78
2022/11/25 10:46:51;;;;;;;33.47;3.85;;;8.10;99.90;;;;;;5001096;28;20045;-78
2022/11/25 10:49:59;;;;;;;35.75;3.60;;;8.20;99.90;;;;;;5003234;28;20060;-79
2022/11/25 10:52:36;;;;;;;27.92;3.35;;;8.20;99.90;;;;;;5016806;28;20060;-78
2022/11/25 10:55:16;;;;;;;24.83;3.28;;;8.20;99.90;;;;;;5001591;28;20045;-78
2022/11/25 10:57:44;;;;;;;22.50;3.15;;;8.30;99.90;;;;;;5033485;28;20384;-78
2022/11/25 11:00:31;;;;;;;27.73;3.63;;;8.80;99.90;;;;;;5034685;28;20041;-78
2022/11/25 11:03:11;;;;;;;;;;;8.40;99.90;;;;;;5033817;28;20042;-78
2022/11/25 11:05:49;;;;;;;32.95;3.90;;;8.30;99.90;;;;;;5035125;28;19921;-78
2022/11/25 11:08:23;;;;;;;31.75;3.58;;;8.50;99.90;;;;;;5017528;28;20053;-78
2022/11/25 11:11:20;;;;;;;29.08;3.75;;;10.80;99.90;;;;;;5033629;28;20057;-78
2022/11/25 11:14:09;;;;;;;29.00;3.10;;;8.80;99.90;;;;;;5034633;28;20053;-79
2022/11/25 11:16:44;;;;;;;24.58;3.10;;;8.50;99.90;;;;;;5033590;28;20151;-78
2022/11/25 11:19:28;;;;;;;32.55;3.50;;;10.20;99.90;;;;;;5017346;28;20041;-78
2022/11/25 11:22:17;;;;;;;28.83;3.08;;;8.60;99.90;;;;;;5017581;28;20499;-78
2022/11/25 11:25:23;;;;;;;32.00;3.60;;;11.00;99.90;;;;;;5033402;28;20483;-78
2022/11/25 11:27:50;;;;;;;22.13;3.25;;;8.70;99.90;;;;;;5017260;28;20041;-78
2022/11/25 11:30:23;;;;;;;28.67;3.35;;;8.70;99.90;;;;;;5033766;28;20046;-78
2022/11/25 11:33:00;;;;;;;30.70;3.42;;;8.80;99.90;;;;;;5034781;28;20049;-78
2022/11/25 11:35:44;;;;;;;25.95;3.47;;;8.90;99.90;;;;;;5034711;28;20057;-78
2022/11/25 11:38:26;;;;;;;22.15;3.15;;;10.50;99.90;;;;;;5034203;28;20060;-78
2022/11/25 11:41:16;;;;;;;27.70;3.85;;;9.90;99.90;;;;;;5034768;28;20041;-78
2022/11/25 11:44:24;;;;;;;29.55;3.38;;;9.10;99.90;;;;;;5016241;28;20041;-79
2022/11/25 11:47:09;;;;;;;22.15;3.22;;;9.10;99.90;;;;;;5034775;28;20041;-78
2022/11/25 11:50:00;;;;;;;;;;;9.70;99.90;;;;;;5033811;28;20045;-79
2022/11/25 11:53:06;;;;;;;31.77;4.78;;;9.00;99.90;;;;;;5017076;28;19921;-78
2022/11/25 11:55:42;;;;;;;27.90;4.07;;;9.10;99.90;;;;;;4964689;28;20474;-78
2022/11/25 11:58:32;;;;;;;28.48;3.58;;;9.10;99.90;;;;;;5016567;28;20053;-78
2022/11/25 12:01:21;;;;;;;25.08;3.28;;;7.40;99.90;;;;;;5016698;28;20049;-78
2022/11/25 12:04:22;;;;;;;26.50;3.83;;;9.50;99.90;;;;;;5001531;28;20045;-78
2022/11/25 12:07:08;;;;;;;22.02;3.55;;;9.40;99.90;;;;;;5020863;28;20476;-78
2022/11/25 12:09:48;;;;;;;26.73;3.83;;;9.60;99.90;;;;;;5003801;28;20049;-78
2022/11/25 12:12:32;;;;;;;32.28;4.97;;;8.90;99.90;;;;;;5020399;28;20053;-78
2022/11/25 12:15:26;;;;;;;21.20;4.47;;;9.70;99.90;;;;;;5037649;28;20061;-78
2022/11/25 12:18:08;;;;;;;30.23;4.07;;;9.50;99.90;;;;;;5019335;28;20048;-78
2022/11/25 12:20:58;;;;;;;23.67;3.92;;;10.80;99.90;;;;;;5037522;28;20052;-78
2022/11/25 12:24:02;;;;;;;;;;;;;;;;;;;;;
2022/11/25 12:26:49;;;;;;;26.25;3.38;;;9.50;99.90;;;;;;5037399;28;20072;-78
2022/11/25 12:29:48;;;;;;;17.08;3.00;;;9.60;99.90;;;;;;5036373;28;20072;-79
2022/11/25 12:32:36;;;;;;;23.13;2.90;;;10.50;99.90;;;;;;4997796;28;20053;-79
2022/11/25 12:35:39;;;;;;;24.30;2.95;;;9.60;99.90;;;;;;5020413;28;20049;-78
2022/11/25 12:38:20;;;;;;;27.67;3.45;;;10.80;99.90;;;;;;5041722;28;20045;-79
2022/11/25 12:41:19;;;;;;;23.13;4.18;;;11.90;99.90;;;;;;5051775;28;20049;-78
2022/11/25 12:43:59;;;;;;;21.73;3.88;;;9.70;99.90;;;;;;5055024;28;20037;-79
2022/11/25 12:46:56;;;;;;;19.15;3.90;;;11.40;99.90;;;;;;5056746;28;20052;-78
2022/11/25 12:49:49;;;;;;;24.37;3.73;;;7.50;99.90;;;;;;5054090;28;20053;-78
2022/11/25 12:52:27;;;;;;;25.08;3.17;;;10.00;99.90;;;;;;5057007;28;20049;-79
2022/11/25 12:55:01;;;;;;;;;;;9.70;99.90;;;;;;5056255;28;20048;-79
2022/11/25 12:58:06;;;;;;;23.83;3.20;;;9.90;99.90;;;;;;5055042;28;20409;-78
2022/11/25 13:01:06;;;;;;;23.00;3.40;;;9.80;99.90;;;;;;5056839;28;20462;-79
2022/11/25 13:03:47;;;;;;;26.20;3.28;;;9.90;99.90;;;;;;5055367;28;20367;-79
2022/11/25 13:07:02;;;;;;;18.70;2.85;;;10.00;99.90;;;;;;5056588;28;20041;-78
2022/11/25 13:10:10;;;;;;;21.98;3.08;;;10.00;99.90;;;;;;5019534;28;20045;-79
2022/11/25 13:13:05;;;;;;;17.50;2.70;;;9.90;99.90;;;;;;5055888;28;20040;-79
2022/11/25 13:15:44;;;;;;;17.58;2.72;;;10.10;99.90;;;;;;5055854;28;20044;-79
2022/11/25 13:18:21;;;;;;;17.60;2.70;;;10.10;99.90;;;;;;5056387;28;20037;-79
2022/11/25 13:20:53;;;;;;;25.52;3.08;;;9.90;99.90;;;;;;5056781;28;20375;-78
2022/11/25 13:23:25;;;;;;;18.42;2.90;;;10.00;99.90;;;;;;5054969;28;20049;-79
2022/11/25 13:26:27;;;;;;;18.58;3.47;;;10.90;99.90;;;;;;5055476;28;20071;-78
2022/11/25 13:29:25;;;;;;;22.55;2.80;;;10.10;99.90;;;;;;5056423;28;20041;-79
2022/11/25 13:32:26;;;;;;;25.85;3.30;;;12.20;99.90;;;;;;5056038;28;20037;-79
2022/11/25 13:35:35;;;;;;;21.10;3.20;;;10.40;99.90;;;;;;5038338;28;20049;-78
2022/11/25 13:38:28;;;;;;;16.95;3.10;;;10.50;99.90;;;;;;5044777;28;20052;-78
2022/11/25 13:41:00;;;;;;;16.85;2.92;;;10.40;99.90;;;;;;5036411;28;20052;-78
2022/11/25 13:43:57;;;;;;;20.48;2.90;;;10.40;99.90;;;;;;5054675;28;20372;-79
2022/11/25 13:46:40;;;;;;;21.02;3.25;;;10.40;99.90;;;;;;5003615;28;20045;-79
2022/11/25 13:49:33;;;;;;;18.35;3.28;;;10.20;99.90;;;;;;5054628;28;20048;-79
2022/11/25 13:52:22;;;;;;;20.98;2.60;;;10.20;99.90;;;;;;5055668;28;20041;-78